sensor_id;sensor_type;location;lat;lon;timestamp;P1;durP1;ratioP1;P2;durP2;ratioP2
22705;SDS011;11520;51.198;4.468;2023-11-18T00:00:26;31.90;;;23.13;;
22705;SDS011;11520;51.198;4.468;2023-11-18T00:02:52;31.27;;;22.13;;
22705;SDS011;11520;51.198;4.468;2023-11-18T00:05:18;37.35;;;22.95;;
22705;SDS011;11520;51.198;4.468;2023-11-18T00:07:44;31.50;;;22.15;;
22705;SDS011;11520;51.198;4.468;2023-11-18T00:10:09;30.88;;;21.95;;
22705;SDS011;11520;51.198;4.468;2023-11-18T00:12:36;32.58;;;21.42;;
22705;SDS011;11520;51.198;4.468;2023-11-18T00:15:02;33.40;;;21.63;;
22705;SDS011;11520;51.198;4.468;2023-11-18T00:17:29;27.23;;;19.60;;
22705;SDS011;11520;51.198;4.468;2023-11-18T00:19:55;27.60;;;20.45;;
22705;SDS011;11520;51.198;4.468;2023-11-18T00:22:21;28.80;;;19.50;;
22705;SDS011;11520;51.198;4.468;2023-11-18T00:24:46;28.83;;;18.27;;
22705;SDS011;11520;51.198;4.468;2023-11-18T00:27:12;26.77;;;17.77;;
22705;SDS011;11520;51.198;4.468;2023-11-18T00:29:39;22.02;;;17.25;;
22705;SDS011;11520;51.198;4.468;2023-11-18T00:32:05;29.40;;;17.33;;
22705;SDS011;11520;51.198;4.468;2023-11-18T00:34:32;25.73;;;17.10;;
22705;SDS011;11520;51.198;4.468;2023-11-18T00:36:58;23.98;;;16.83;;
22705;SDS011;11520;51.198;4.468;2023-11-18T00:39:24;27.88;;;16.75;;
22705;SDS011;11520;51.198;4.468;2023-11-18T00:41:50;22.40;;;16.08;;
22705;SDS011;11520;51.198;4.468;2023-11-18T00:44:16;23.10;;;16.23;;
22705;SDS011;11520;51.198;4.468;2023-11-18T00:46:43;23.08;;;15.93;;
22705;SDS011;11520;51.198;4.468;2023-11-18T00:49:08;23.15;;;15.43;;
22705;SDS011;11520;51.198;4.468;2023-11-18T00:51:35;25.77;;;15.90;;
22705;SDS011;11520;51.198;4.468;2023-11-18T00:54:02;26.45;;;15.50;;
22705;SDS011;11520;51.198;4.468;2023-11-18T00:56:30;22.08;;;14.70;;
22705;SDS011;11520;51.198;4.468;2023-11-18T00:58:59;21.77;;;14.57;;
22705;SDS011;11520;51.198;4.468;2023-11-18T01:01:26;21.90;;;13.80;;
22705;SDS011;11520;51.198;4.468;2023-11-18T01:03:52;22.05;;;13.77;;
22705;SDS011;11520;51.198;4.468;2023-11-18T01:06:18;24.52;;;13.68;;
22705;SDS011;11520;51.198;4.468;2023-11-18T01:08:44;24.80;;;14.88;;
22705;SDS011;11520;51.198;4.468;2023-11-18T01:11:10;24.42;;;13.63;;
22705;SDS011;11520;51.198;4.468;2023-11-18T01:13:40;21.20;;;13.25;;
22705;SDS011;11520;51.198;4.468;2023-11-18T01:16:05;23.05;;;13.30;;
22705;SDS011;11520;51.198;4.468;2023-11-18T01:18:31;19.63;;;12.63;;
22705;SDS011;11520;51.198;4.468;2023-11-18T01:20:56;16.50;;;12.32;;
22705;SDS011;11520;51.198;4.468;2023-11-18T01:23:23;24.63;;;14.18;;
22705;SDS011;11520;51.198;4.468;2023-11-18T01:25:49;21.85;;;13.18;;
22705;SDS011;11520;51.198;4.468;2023-11-18T01:28:16;22.55;;;13.32;;
22705;SDS011;11520;51.198;4.468;2023-11-18T01:30:41;24.00;;;13.77;;
22705;SDS011;11520;51.198;4.468;2023-11-18T01:33:11;25.45;;;14.50;;
22705;SDS011;11520;51.198;4.468;2023-11-18T01:35:37;23.20;;;13.85;;
22705;SDS011;11520;51.198;4.468;2023-11-18T01:38:03;20.80;;;13.35;;
22705;SDS011;11520;51.198;4.468;2023-11-18T01:40:30;21.92;;;13.23;;
22705;SDS011;11520;51.198;4.468;2023-11-18T01:42:55;22.10;;;13.50;;
22705;SDS011;11520;51.198;4.468;2023-11-18T01:45:21;22.15;;;14.32;;
22705;SDS011;11520;51.198;4.468;2023-11-18T01:47:46;24.73;;;14.25;;
22705;SDS011;11520;51.198;4.468;2023-11-18T01:50:13;24.30;;;14.75;;
22705;SDS011;11520;51.198;4.468;2023-11-18T01:52:40;24.95;;;15.30;;
22705;SDS011;11520;51.198;4.468;2023-11-18T01:55:06;26.88;;;16.27;;
22705;SDS011;11520;51.198;4.468;2023-11-18T01:57:35;23.63;;;14.77;;
22705;SDS011;11520;51.198;4.468;2023-11-18T02:00:02;22.83;;;15.73;;
22705;SDS011;11520;51.198;4.468;2023-11-18T02:02:32;24.13;;;15.30;;
22705;SDS011;11520;51.198;4.468;2023-11-18T02:04:58;27.35;;;14.65;;
22705;SDS011;11520;51.198;4.468;2023-11-18T02:07:26;24.00;;;14.68;;
22705;SDS011;11520;51.198;4.468;2023-11-18T02:09:53;26.77;;;15.20;;
22705;SDS011;11520;51.198;4.468;2023-11-18T02:12:25;25.40;;;14.63;;
22705;SDS011;11520;51.198;4.468;2023-11-18T02:15:03;24.52;;;15.18;;
22705;SDS011;11520;51.198;4.468;2023-11-18T02:17:35;25.98;;;15.32;;
22705;SDS011;11520;51.198;4.468;2023-11-18T02:20:03;26.42;;;15.77;;
22705;SDS011;11520;51.198;4.468;2023-11-18T02:22:40;28.70;;;15.98;;
22705;SDS011;11520;51.198;4.468;2023-11-18T02:25:07;27.65;;;16.17;;
22705;SDS011;11520;51.198;4.468;2023-11-18T02:27:36;28.17;;;16.15;;
22705;SDS011;11520;51.198;4.468;2023-11-18T02:30:02;32.40;;;17.10;;
22705;SDS011;11520;51.198;4.468;2023-11-18T02:32:36;26.23;;;16.88;;
22705;SDS011;11520;51.198;4.468;2023-11-18T02:35:14;28.55;;;16.63;;
22705;SDS011;11520;51.198;4.468;2023-11-18T02:38:04;27.75;;;16.52;;
22705;SDS011;11520;51.198;4.468;2023-11-18T02:40:33;22.58;;;14.68;;
22705;SDS011;11520;51.198;4.468;2023-11-18T02:43:01;23.58;;;14.93;;
22705;SDS011;11520;51.198;4.468;2023-11-18T02:45:30;25.58;;;15.93;;
22705;SDS011;11520;51.198;4.468;2023-11-18T02:47:57;26.10;;;15.85;;
22705;SDS011;11520;51.198;4.468;2023-11-18T02:50:25;24.75;;;15.38;;
22705;SDS011;11520;51.198;4.468;2023-11-18T02:52:52;23.05;;;14.45;;
22705;SDS011;11520;51.198;4.468;2023-11-18T02:55:18;24.90;;;14.68;;
22705;SDS011;11520;51.198;4.468;2023-11-18T02:57:47;27.90;;;15.10;;
22705;SDS011;11520;51.198;4.468;2023-11-18T03:00:13;24.13;;;15.10;;
22705;SDS011;11520;51.198;4.468;2023-11-18T03:02:48;24.75;;;14.52;;
22705;SDS011;11520;51.198;4.468;2023-11-18T03:05:15;25.75;;;14.10;;
22705;SDS011;11520;51.198;4.468;2023-11-18T03:07:41;29.17;;;16.40;;
22705;SDS011;11520;51.198;4.468;2023-11-18T03:10:08;26.60;;;14.73;;
22705;SDS011;11520;51.198;4.468;2023-11-18T03:12:45;29.60;;;15.48;;
22705;SDS011;11520;51.198;4.468;2023-11-18T03:15:14;25.15;;;15.98;;
22705;SDS011;11520;51.198;4.468;2023-11-18T03:17:46;28.13;;;14.77;;
22705;SDS011;11520;51.198;4.468;2023-11-18T03:20:15;29.05;;;16.42;;
22705;SDS011;11520;51.198;4.468;2023-11-18T03:22:48;30.42;;;16.52;;
22705;SDS011;11520;51.198;4.468;2023-11-18T03:27:42;28.10;;;15.93;;
22705;SDS011;11520;51.198;4.468;2023-11-18T03:30:09;31.95;;;16.38;;
22705;SDS011;11520;51.198;4.468;2023-11-18T03:32:35;33.10;;;16.95;;
22705;SDS011;11520;51.198;4.468;2023-11-18T03:35:02;27.60;;;15.73;;
22705;SDS011;11520;51.198;4.468;2023-11-18T03:37:33;31.83;;;16.38;;
22705;SDS011;11520;51.198;4.468;2023-11-18T03:40:08;32.03;;;16.80;;
22705;SDS011;11520;51.198;4.468;2023-11-18T03:42:38;37.95;;;18.38;;
22705;SDS011;11520;51.198;4.468;2023-11-18T03:45:06;25.67;;;16.10;;
22705;SDS011;11520;51.198;4.468;2023-11-18T03:47:32;26.38;;;16.50;;
22705;SDS011;11520;51.198;4.468;2023-11-18T03:49:58;28.40;;;15.68;;
22705;SDS011;11520;51.198;4.468;2023-11-18T03:52:24;27.33;;;15.32;;
22705;SDS011;11520;51.198;4.468;2023-11-18T03:54:50;29.38;;;16.35;;
22705;SDS011;11520;51.198;4.468;2023-11-18T03:57:16;27.52;;;14.80;;
22705;SDS011;11520;51.198;4.468;2023-11-18T03:59:41;32.38;;;14.80;;
22705;SDS011;11520;51.198;4.468;2023-11-18T04:02:09;26.25;;;14.30;;
22705;SDS011;11520;51.198;4.468;2023-11-18T04:04:36;27.13;;;14.05;;
22705;SDS011;11520;51.198;4.468;2023-11-18T04:07:02;31.25;;;13.98;;
22705;SDS011;11520;51.198;4.468;2023-11-18T04:09:28;25.27;;;14.30;;
22705;SDS011;11520;51.198;4.468;2023-11-18T04:11:54;25.77;;;13.55;;
22705;SDS011;11520;51.198;4.468;2023-11-18T04:14:20;31.45;;;15.40;;
22705;SDS011;11520;51.198;4.468;2023-11-18T04:16:46;24.33;;;13.85;;
22705;SDS011;11520;51.198;4.468;2023-11-18T04:19:12;24.23;;;13.52;;
22705;SDS011;11520;51.198;4.468;2023-11-18T04:21:38;23.02;;;13.60;;
22705;SDS011;11520;51.198;4.468;2023-11-18T04:24:04;20.92;;;12.30;;
22705;SDS011;11520;51.198;4.468;2023-11-18T04:26:31;22.20;;;11.50;;
22705;SDS011;11520;51.198;4.468;2023-11-18T04:28:57;17.98;;;12.13;;
22705;SDS011;11520;51.198;4.468;2023-11-18T04:31:23;20.15;;;12.45;;
22705;SDS011;11520;51.198;4.468;2023-11-18T04:33:49;20.55;;;10.82;;
22705;SDS011;11520;51.198;4.468;2023-11-18T04:36:14;23.02;;;14.00;;
22705;SDS011;11520;51.198;4.468;2023-11-18T04:38:41;15.93;;;11.68;;
22705;SDS011;11520;51.198;4.468;2023-11-18T04:41:07;18.67;;;11.00;;
22705;SDS011;11520;51.198;4.468;2023-11-18T04:43:33;17.77;;;10.48;;
22705;SDS011;11520;51.198;4.468;2023-11-18T04:45:59;19.23;;;11.13;;
22705;SDS011;11520;51.198;4.468;2023-11-18T04:48:25;21.80;;;10.75;;
22705;SDS011;11520;51.198;4.468;2023-11-18T04:50:51;18.50;;;11.65;;
22705;SDS011;11520;51.198;4.468;2023-11-18T04:53:17;21.73;;;11.55;;
22705;SDS011;11520;51.198;4.468;2023-11-18T04:55:42;22.73;;;10.00;;
22705;SDS011;11520;51.198;4.468;2023-11-18T04:58:08;19.40;;;10.38;;
22705;SDS011;11520;51.198;4.468;2023-11-18T05:00:38;18.63;;;10.57;;
22705;SDS011;11520;51.198;4.468;2023-11-18T05:03:05;17.92;;;10.18;;
22705;SDS011;11520;51.198;4.468;2023-11-18T05:05:34;19.58;;;10.38;;
22705;SDS011;11520;51.198;4.468;2023-11-18T05:08:06;17.38;;;9.48;;
22705;SDS011;11520;51.198;4.468;2023-11-18T05:10:34;20.52;;;9.52;;
22705;SDS011;11520;51.198;4.468;2023-11-18T05:13:01;15.82;;;9.90;;
22705;SDS011;11520;51.198;4.468;2023-11-18T05:15:27;18.35;;;9.95;;
22705;SDS011;11520;51.198;4.468;2023-11-18T05:17:55;18.50;;;9.95;;
22705;SDS011;11520;51.198;4.468;2023-11-18T05:20:20;27.20;;;10.88;;
22705;SDS011;11520;51.198;4.468;2023-11-18T05:22:47;16.65;;;9.07;;
22705;SDS011;11520;51.198;4.468;2023-11-18T05:25:13;19.45;;;9.95;;
22705;SDS011;11520;51.198;4.468;2023-11-18T05:27:39;16.40;;;9.50;;
22705;SDS011;11520;51.198;4.468;2023-11-18T05:30:05;18.63;;;9.13;;
22705;SDS011;11520;51.198;4.468;2023-11-18T05:32:35;15.82;;;9.93;;
22705;SDS011;11520;51.198;4.468;2023-11-18T05:35:00;19.65;;;9.70;;
22705;SDS011;11520;51.198;4.468;2023-11-18T05:37:26;20.95;;;9.38;;
22705;SDS011;11520;51.198;4.468;2023-11-18T05:39:54;20.77;;;9.05;;
22705;SDS011;11520;51.198;4.468;2023-11-18T05:42:31;16.10;;;8.50;;
22705;SDS011;11520;51.198;4.468;2023-11-18T05:45:06;18.15;;;9.65;;
22705;SDS011;11520;51.198;4.468;2023-11-18T05:47:32;17.92;;;8.77;;
22705;SDS011;11520;51.198;4.468;2023-11-18T05:49:59;18.30;;;8.30;;
22705;SDS011;11520;51.198;4.468;2023-11-18T05:52:25;17.13;;;9.10;;
22705;SDS011;11520;51.198;4.468;2023-11-18T05:54:50;17.60;;;7.63;;
22705;SDS011;11520;51.198;4.468;2023-11-18T05:57:16;16.05;;;8.05;;
22705;SDS011;11520;51.198;4.468;2023-11-18T05:59:43;19.60;;;8.60;;
22705;SDS011;11520;51.198;4.468;2023-11-18T06:02:08;16.58;;;8.18;;
22705;SDS011;11520;51.198;4.468;2023-11-18T06:04:42;18.33;;;7.80;;
22705;SDS011;11520;51.198;4.468;2023-11-18T06:07:08;19.88;;;7.57;;
22705;SDS011;11520;51.198;4.468;2023-11-18T06:09:33;15.20;;;6.93;;
22705;SDS011;11520;51.198;4.468;2023-11-18T06:11:59;19.88;;;7.28;;
22705;SDS011;11520;51.198;4.468;2023-11-18T06:14:25;13.98;;;6.30;;
22705;SDS011;11520;51.198;4.468;2023-11-18T06:16:51;18.38;;;6.22;;
22705;SDS011;11520;51.198;4.468;2023-11-18T06:19:17;11.80;;;5.90;;
22705;SDS011;11520;51.198;4.468;2023-11-18T06:21:43;14.52;;;6.20;;
22705;SDS011;11520;51.198;4.468;2023-11-18T06:24:09;12.85;;;6.18;;
22705;SDS011;11520;51.198;4.468;2023-11-18T06:26:36;15.70;;;5.57;;
22705;SDS011;11520;51.198;4.468;2023-11-18T06:29:02;16.98;;;5.22;;
22705;SDS011;11520;51.198;4.468;2023-11-18T06:31:28;11.35;;;4.97;;
22705;SDS011;11520;51.198;4.468;2023-11-18T06:33:54;16.52;;;5.90;;
22705;SDS011;11520;51.198;4.468;2023-11-18T06:36:20;12.88;;;5.43;;
22705;SDS011;11520;51.198;4.468;2023-11-18T06:38:47;13.45;;;6.03;;
22705;SDS011;11520;51.198;4.468;2023-11-18T06:41:17;11.93;;;5.72;;
22705;SDS011;11520;51.198;4.468;2023-11-18T06:43:44;15.15;;;5.65;;
22705;SDS011;11520;51.198;4.468;2023-11-18T06:48:46;13.65;;;5.32;;
22705;SDS011;11520;51.198;4.468;2023-11-18T06:51:22;17.90;;;5.28;;
22705;SDS011;11520;51.198;4.468;2023-11-18T06:53:58;16.67;;;5.32;;
22705;SDS011;11520;51.198;4.468;2023-11-18T06:56:27;13.88;;;5.82;;
22705;SDS011;11520;51.198;4.468;2023-11-18T06:58:53;16.45;;;5.53;;
22705;SDS011;11520;51.198;4.468;2023-11-18T07:01:19;13.93;;;5.28;;
22705;SDS011;11520;51.198;4.468;2023-11-18T07:03:46;17.88;;;5.57;;
22705;SDS011;11520;51.198;4.468;2023-11-18T07:06:19;16.02;;;5.68;;
22705;SDS011;11520;51.198;4.468;2023-11-18T07:08:50;12.07;;;4.53;;
22705;SDS011;11520;51.198;4.468;2023-11-18T07:11:16;11.52;;;5.25;;
22705;SDS011;11520;51.198;4.468;2023-11-18T07:13:43;15.60;;;5.20;;
22705;SDS011;11520;51.198;4.468;2023-11-18T07:16:12;12.75;;;4.28;;
22705;SDS011;11520;51.198;4.468;2023-11-18T07:18:39;11.95;;;4.90;;
22705;SDS011;11520;51.198;4.468;2023-11-18T07:21:07;11.35;;;4.75;;
22705;SDS011;11520;51.198;4.468;2023-11-18T07:23:34;16.85;;;4.55;;
22705;SDS011;11520;51.198;4.468;2023-11-18T07:26:00;14.18;;;4.10;;
22705;SDS011;11520;51.198;4.468;2023-11-18T07:28:26;13.10;;;4.15;;
22705;SDS011;11520;51.198;4.468;2023-11-18T07:30:54;13.25;;;4.68;;
22705;SDS011;11520;51.198;4.468;2023-11-18T07:33:19;11.68;;;3.95;;
22705;SDS011;11520;51.198;4.468;2023-11-18T07:35:49;13.43;;;3.75;;
22705;SDS011;11520;51.198;4.468;2023-11-18T07:38:15;14.35;;;4.18;;
22705;SDS011;11520;51.198;4.468;2023-11-18T07:40:41;16.25;;;4.72;;
22705;SDS011;11520;51.198;4.468;2023-11-18T07:43:13;11.45;;;3.30;;
22705;SDS011;11520;51.198;4.468;2023-11-18T07:45:39;9.55;;;3.22;;
22705;SDS011;11520;51.198;4.468;2023-11-18T07:48:05;13.18;;;3.83;;
22705;SDS011;11520;51.198;4.468;2023-11-18T07:50:38;9.43;;;3.20;;
22705;SDS011;11520;51.198;4.468;2023-11-18T07:53:09;12.63;;;3.50;;
22705;SDS011;11520;51.198;4.468;2023-11-18T07:55:35;10.15;;;3.67;;
22705;SDS011;11520;51.198;4.468;2023-11-18T07:58:04;17.25;;;3.85;;
22705;SDS011;11520;51.198;4.468;2023-11-18T08:00:35;12.45;;;3.85;;
22705;SDS011;11520;51.198;4.468;2023-11-18T08:03:08;14.40;;;3.65;;
22705;SDS011;11520;51.198;4.468;2023-11-18T08:05:42;10.73;;;3.30;;
22705;SDS011;11520;51.198;4.468;2023-11-18T08:08:10;9.95;;;3.47;;
22705;SDS011;11520;51.198;4.468;2023-11-18T08:10:36;12.80;;;3.60;;
22705;SDS011;11520;51.198;4.468;2023-11-18T08:13:03;11.07;;;3.47;;
22705;SDS011;11520;51.198;4.468;2023-11-18T08:15:29;12.20;;;3.70;;
22705;SDS011;11520;51.198;4.468;2023-11-18T08:17:56;12.05;;;3.40;;
22705;SDS011;11520;51.198;4.468;2023-11-18T08:20:22;12.00;;;3.10;;
22705;SDS011;11520;51.198;4.468;2023-11-18T08:22:50;10.70;;;3.47;;
22705;SDS011;11520;51.198;4.468;2023-11-18T08:25:15;14.82;;;3.00;;
22705;SDS011;11520;51.198;4.468;2023-11-18T08:27:42;11.38;;;2.97;;
22705;SDS011;11520;51.198;4.468;2023-11-18T08:30:10;9.45;;;2.92;;
22705;SDS011;11520;51.198;4.468;2023-11-18T08:32:37;12.27;;;3.20;;
22705;SDS011;11520;51.198;4.468;2023-11-18T08:35:07;13.98;;;3.38;;
22705;SDS011;11520;51.198;4.468;2023-11-18T08:37:34;12.90;;;3.50;;
22705;SDS011;11520;51.198;4.468;2023-11-18T08:40:03;8.50;;;3.30;;
22705;SDS011;11520;51.198;4.468;2023-11-18T08:42:45;10.73;;;3.88;;
22705;SDS011;11520;51.198;4.468;2023-11-18T08:45:15;9.18;;;3.80;;
22705;SDS011;11520;51.198;4.468;2023-11-18T08:47:57;10.13;;;3.53;;
22705;SDS011;11520;51.198;4.468;2023-11-18T08:50:26;13.77;;;4.10;;
22705;SDS011;11520;51.198;4.468;2023-11-18T08:52:56;11.18;;;4.20;;
22705;SDS011;11520;51.198;4.468;2023-11-18T08:55:27;12.20;;;4.28;;
22705;SDS011;11520;51.198;4.468;2023-11-18T08:58:12;9.35;;;4.20;;
22705;SDS011;11520;51.198;4.468;2023-11-18T09:00:48;11.38;;;4.15;;
22705;SDS011;11520;51.198;4.468;2023-11-18T09:03:30;16.45;;;4.93;;
22705;SDS011;11520;51.198;4.468;2023-11-18T09:06:08;12.77;;;4.70;;
22705;SDS011;11520;51.198;4.468;2023-11-18T09:08:47;16.08;;;4.43;;
22705;SDS011;11520;51.198;4.468;2023-11-18T09:11:18;13.98;;;4.53;;
22705;SDS011;11520;51.198;4.468;2023-11-18T09:13:45;11.50;;;4.30;;
22705;SDS011;11520;51.198;4.468;2023-11-18T09:16:14;12.23;;;4.20;;
22705;SDS011;11520;51.198;4.468;2023-11-18T09:18:41;9.73;;;4.40;;
22705;SDS011;11520;51.198;4.468;2023-11-18T09:21:10;12.50;;;5.05;;
22705;SDS011;11520;51.198;4.468;2023-11-18T09:23:40;9.75;;;4.25;;
22705;SDS011;11520;51.198;4.468;2023-11-18T09:26:07;10.73;;;4.65;;
22705;SDS011;11520;51.198;4.468;2023-11-18T09:28:33;16.90;;;5.00;;
22705;SDS011;11520;51.198;4.468;2023-11-18T09:31:00;13.95;;;5.18;;
22705;SDS011;11520;51.198;4.468;2023-11-18T09:33:29;15.07;;;5.20;;
22705;SDS011;11520;51.198;4.468;2023-11-18T09:38:25;12.70;;;4.70;;
22705;SDS011;11520;51.198;4.468;2023-11-18T09:40:52;12.63;;;5.25;;
22705;SDS011;11520;51.198;4.468;2023-11-18T09:43:18;14.80;;;5.78;;
22705;SDS011;11520;51.198;4.468;2023-11-18T09:45:47;10.70;;;5.15;;
22705;SDS011;11520;51.198;4.468;2023-11-18T09:48:15;15.45;;;6.85;;
22705;SDS011;11520;51.198;4.468;2023-11-18T09:50:47;12.90;;;4.95;;
22705;SDS011;11520;51.198;4.468;2023-11-18T09:53:16;14.43;;;5.47;;
22705;SDS011;11520;51.198;4.468;2023-11-18T09:55:54;23.92;;;5.60;;
22705;SDS011;11520;51.198;4.468;2023-11-18T09:58:25;12.00;;;5.70;;
22705;SDS011;11520;51.198;4.468;2023-11-18T10:00:58;11.00;;;5.50;;
22705;SDS011;11520;51.198;4.468;2023-11-18T10:03:27;14.40;;;5.97;;
22705;SDS011;11520;51.198;4.468;2023-11-18T10:05:54;13.52;;;5.82;;
22705;SDS011;11520;51.198;4.468;2023-11-18T10:08:21;16.05;;;5.65;;
22705;SDS011;11520;51.198;4.468;2023-11-18T10:10:51;13.13;;;5.47;;
22705;SDS011;11520;51.198;4.468;2023-11-18T10:13:30;11.15;;;5.05;;
22705;SDS011;11520;51.198;4.468;2023-11-18T10:15:59;12.48;;;5.55;;
22705;SDS011;11520;51.198;4.468;2023-11-18T10:18:30;13.07;;;5.10;;
22705;SDS011;11520;51.198;4.468;2023-11-18T10:21:00;15.48;;;6.15;;
22705;SDS011;11520;51.198;4.468;2023-11-18T10:23:26;14.90;;;5.57;;
22705;SDS011;11520;51.198;4.468;2023-11-18T10:25:53;12.23;;;5.57;;
22705;SDS011;11520;51.198;4.468;2023-11-18T10:28:25;14.63;;;5.60;;
22705;SDS011;11520;51.198;4.468;2023-11-18T10:33:40;14.10;;;5.32;;
22705;SDS011;11520;51.198;4.468;2023-11-18T10:36:16;10.55;;;6.20;;
22705;SDS011;11520;51.198;4.468;2023-11-18T10:38:47;10.65;;;5.25;;
22705;SDS011;11520;51.198;4.468;2023-11-18T10:41:14;11.90;;;6.05;;
22705;SDS011;11520;51.198;4.468;2023-11-18T10:43:43;9.52;;;5.57;;
22705;SDS011;11520;51.198;4.468;2023-11-18T10:46:16;11.20;;;5.82;;
22705;SDS011;11520;51.198;4.468;2023-11-18T10:48:48;19.83;;;7.10;;
22705;SDS011;11520;51.198;4.468;2023-11-18T10:51:16;12.55;;;6.50;;
22705;SDS011;11520;51.198;4.468;2023-11-18T10:53:44;11.13;;;6.05;;
22705;SDS011;11520;51.198;4.468;2023-11-18T10:56:19;15.68;;;7.25;;
22705;SDS011;11520;51.198;4.468;2023-11-18T11:01:32;13.32;;;6.68;;
22705;SDS011;11520;51.198;4.468;2023-11-18T11:03:59;12.48;;;6.25;;
22705;SDS011;11520;51.198;4.468;2023-11-18T11:06:29;13.23;;;6.63;;
22705;SDS011;11520;51.198;4.468;2023-11-18T11:08:58;12.38;;;7.13;;
22705;SDS011;11520;51.198;4.468;2023-11-18T11:11:24;11.48;;;6.18;;
22705;SDS011;11520;51.198;4.468;2023-11-18T11:14:00;11.65;;;6.53;;
22705;SDS011;11520;51.198;4.468;2023-11-18T11:16:28;10.90;;;6.32;;
22705;SDS011;11520;51.198;4.468;2023-11-18T11:19:16;12.10;;;6.05;;
22705;SDS011;11520;51.198;4.468;2023-11-18T11:21:59;11.32;;;6.10;;
22705;SDS011;11520;51.198;4.468;2023-11-18T11:24:36;12.27;;;6.82;;
22705;SDS011;11520;51.198;4.468;2023-11-18T11:27:14;10.38;;;6.85;;
22705;SDS011;11520;51.198;4.468;2023-11-18T11:29:56;14.40;;;7.32;;
22705;SDS011;11520;51.198;4.468;2023-11-18T11:32:35;14.05;;;6.70;;
22705;SDS011;11520;51.198;4.468;2023-11-18T11:35:15;11.00;;;6.45;;
22705;SDS011;11520;51.198;4.468;2023-11-18T11:37:47;10.75;;;6.28;;
22705;SDS011;11520;51.198;4.468;2023-11-18T11:40:15;9.85;;;6.78;;
22705;SDS011;11520;51.198;4.468;2023-11-18T11:42:47;12.23;;;6.40;;
22705;SDS011;11520;51.198;4.468;2023-11-18T11:48:06;7.70;;;4.90;;
22705;SDS011;11520;51.198;4.468;2023-11-18T11:53:49;9.35;;;6.22;;
22705;SDS011;11520;51.198;4.468;2023-11-18T11:56:20;11.95;;;5.68;;
22705;SDS011;11520;51.198;4.468;2023-11-18T11:58:49;9.27;;;5.95;;
22705;SDS011;11520;51.198;4.468;2023-11-18T12:01:32;8.15;;;4.82;;
22705;SDS011;11520;51.198;4.468;2023-11-18T12:04:05;8.60;;;5.45;;
22705;SDS011;11520;51.198;4.468;2023-11-18T12:09:05;8.65;;;4.93;;
22705;SDS011;11520;51.198;4.468;2023-11-18T12:11:36;9.27;;;4.70;;
22705;SDS011;11520;51.198;4.468;2023-11-18T12:14:08;7.05;;;5.07;;
22705;SDS011;11520;51.198;4.468;2023-11-18T12:19:32;8.40;;;4.80;;
22705;SDS011;11520;51.198;4.468;2023-11-18T12:22:11;7.10;;;4.40;;
22705;SDS011;11520;51.198;4.468;2023-11-18T12:35:25;5.53;;;3.55;;
22705;SDS011;11520;51.198;4.468;2023-11-18T12:41:00;5.72;;;2.58;;
22705;SDS011;11520;51.198;4.468;2023-11-18T12:49:36;3.03;;;2.03;;
22705;SDS011;11520;51.198;4.468;2023-11-18T12:52:06;3.33;;;2.20;;
22705;SDS011;11520;51.198;4.468;2023-11-18T12:54:33;3.20;;;1.98;;
22705;SDS011;11520;51.198;4.468;2023-11-18T12:57:03;3.90;;;2.67;;
22705;SDS011;11520;51.198;4.468;2023-11-18T12:59:33;2.65;;;1.95;;
22705;SDS011;11520;51.198;4.468;2023-11-18T13:01:59;5.22;;;2.25;;
22705;SDS011;11520;51.198;4.468;2023-11-18T13:04:29;4.47;;;2.20;;
22705;SDS011;11520;51.198;4.468;2023-11-18T13:06:59;3.88;;;2.10;;
22705;SDS011;11520;51.198;4.468;2023-11-18T13:09:25;2.40;;;2.20;;
22705;SDS011;11520;51.198;4.468;2023-11-18T13:12:01;3.88;;;2.42;;
22705;SDS011;11520;51.198;4.468;2023-11-18T13:14:30;4.15;;;2.30;;
22705;SDS011;11520;51.198;4.468;2023-11-18T13:17:11;2.55;;;1.88;;
22705;SDS011;11520;51.198;4.468;2023-11-18T13:19:38;4.75;;;2.00;;
22705;SDS011;11520;51.198;4.468;2023-11-18T13:22:06;3.35;;;2.20;;
22705;SDS011;11520;51.198;4.468;2023-11-18T13:24:39;2.75;;;1.88;;
22705;SDS011;11520;51.198;4.468;2023-11-18T13:27:06;2.58;;;1.90;;
22705;SDS011;11520;51.198;4.468;2023-11-18T13:29:36;5.57;;;1.73;;
22705;SDS011;11520;51.198;4.468;2023-11-18T13:32:10;4.05;;;1.70;;
22705;SDS011;11520;51.198;4.468;2023-11-18T13:34:37;3.78;;;1.88;;
22705;SDS011;11520;51.198;4.468;2023-11-18T13:37:08;2.55;;;1.80;;
22705;SDS011;11520;51.198;4.468;2023-11-18T13:39:35;3.72;;;2.00;;
22705;SDS011;11520;51.198;4.468;2023-11-18T13:44:53;3.88;;;1.90;;
22705;SDS011;11520;51.198;4.468;2023-11-18T13:47:26;3.10;;;1.92;;
22705;SDS011;11520;51.198;4.468;2023-11-18T13:49:56;1.63;;;1.52;;
22705;SDS011;11520;51.198;4.468;2023-11-18T13:52:23;2.28;;;2.05;;
22705;SDS011;11520;51.198;4.468;2023-11-18T13:54:51;2.45;;;1.98;;
22705;SDS011;11520;51.198;4.468;2023-11-18T13:57:22;3.88;;;2.22;;
22705;SDS011;11520;51.198;4.468;2023-11-18T13:59:49;4.15;;;2.17;;
22705;SDS011;11520;51.198;4.468;2023-11-18T14:02:17;2.33;;;2.13;;
22705;SDS011;11520;51.198;4.468;2023-11-18T14:04:44;4.13;;;3.05;;
22705;SDS011;11520;51.198;4.468;2023-11-18T14:07:14;2.08;;;1.92;;
22705;SDS011;11520;51.198;4.468;2023-11-18T14:09:42;2.05;;;1.80;;
22705;SDS011;11520;51.198;4.468;2023-11-18T14:12:10;1.63;;;1.42;;
22705;SDS011;11520;51.198;4.468;2023-11-18T14:14:37;2.10;;;1.88;;
22705;SDS011;11520;51.198;4.468;2023-11-18T14:17:06;2.88;;;2.40;;
22705;SDS011;11520;51.198;4.468;2023-11-18T14:19:35;2.38;;;2.17;;
22705;SDS011;11520;51.198;4.468;2023-11-18T14:22:00;1.63;;;1.42;;
22705;SDS011;11520;51.198;4.468;2023-11-18T14:24:30;1.90;;;1.25;;
22705;SDS011;11520;51.198;4.468;2023-11-18T14:26:57;1.35;;;1.20;;
22705;SDS011;11520;51.198;4.468;2023-11-18T14:29:22;1.55;;;1.27;;
22705;SDS011;11520;51.198;4.468;2023-11-18T14:31:51;1.35;;;1.25;;
22705;SDS011;11520;51.198;4.468;2023-11-18T14:34:17;1.45;;;1.17;;
22705;SDS011;11520;51.198;4.468;2023-11-18T14:36:43;1.75;;;1.38;;
22705;SDS011;11520;51.198;4.468;2023-11-18T14:39:09;1.27;;;1.17;;
22705;SDS011;11520;51.198;4.468;2023-11-18T14:41:38;1.77;;;1.67;;
22705;SDS011;11520;51.198;4.468;2023-11-18T14:44:04;4.97;;;1.45;;
22705;SDS011;11520;51.198;4.468;2023-11-18T14:46:30;1.55;;;1.45;;
22705;SDS011;11520;51.198;4.468;2023-11-18T14:48:56;2.47;;;1.85;;
22705;SDS011;11520;51.198;4.468;2023-11-18T14:51:24;5.22;;;2.75;;
22705;SDS011;11520;51.198;4.468;2023-11-18T14:54:00;1.50;;;1.40;;
22705;SDS011;11520;51.198;4.468;2023-11-18T14:56:26;3.97;;;1.73;;
22705;SDS011;11520;51.198;4.468;2023-11-18T14:58:51;2.30;;;1.60;;
22705;SDS011;11520;51.198;4.468;2023-11-18T15:01:17;2.85;;;1.30;;
22705;SDS011;11520;51.198;4.468;2023-11-18T15:03:43;1.52;;;1.42;;
22705;SDS011;11520;51.198;4.468;2023-11-18T15:06:10;1.65;;;1.52;;
22705;SDS011;11520;51.198;4.468;2023-11-18T15:08:37;3.55;;;1.40;;
22705;SDS011;11520;51.198;4.468;2023-11-18T15:11:04;1.77;;;1.40;;
22705;SDS011;11520;51.198;4.468;2023-11-18T15:13:31;1.80;;;1.35;;
22705;SDS011;11520;51.198;4.468;2023-11-18T15:15:57;2.28;;;1.30;;
22705;SDS011;11520;51.198;4.468;2023-11-18T15:18:23;1.73;;;1.20;;
22705;SDS011;11520;51.198;4.468;2023-11-18T15:20:49;1.92;;;1.50;;
22705;SDS011;11520;51.198;4.468;2023-11-18T15:23:15;2.05;;;1.42;;
22705;SDS011;11520;51.198;4.468;2023-11-18T15:25:47;2.42;;;1.38;;
22705;SDS011;11520;51.198;4.468;2023-11-18T15:28:17;1.80;;;1.40;;